sensor_id;sensor_type;location;lat;lon;timestamp;P1;durP1;ratioP1;P2;durP2;ratioP2
20173;SDS011;10246;50.620;7.232;2022-12-13T00:02:04;18.47;;;9.53;;
20173;SDS011;10246;50.620;7.232;2022-12-13T00:04:31;22.43;;;10.07;;
20173;SDS011;10246;50.620;7.232;2022-12-13T00:06:58;20.53;;;9.80;;
20173;SDS011;10246;50.620;7.232;2022-12-13T00:09:26;21.13;;;11.17;;
20173;SDS011;10246;50.620;7.232;2022-12-13T00:11:52;20.70;;;10.60;;
20173;SDS011;10246;50.620;7.232;2022-12-13T00:14:19;23.37;;;10.17;;
20173;SDS011;10246;50.620;7.232;2022-12-13T00:16:46;20.87;;;10.27;;
20173;SDS011;10246;50.620;7.232;2022-12-13T00:19:14;23.60;;;11.27;;
20173;SDS011;10246;50.620;7.232;2022-12-13T00:21:41;21.03;;;10.37;;
20173;SDS011;10246;50.620;7.232;2022-12-13T00:24:09;19.67;;;9.33;;
20173;SDS011;10246;50.620;7.232;2022-12-13T00:26:37;22.67;;;10.27;;
20173;SDS011;10246;50.620;7.232;2022-12-13T00:29:04;20.50;;;9.53;;
20173;SDS011;10246;50.620;7.232;2022-12-13T00:31:32;20.17;;;10.77;;
20173;SDS011;10246;50.620;7.232;2022-12-13T00:34:00;22.63;;;11.23;;
20173;SDS011;10246;50.620;7.232;2022-12-13T00:36:27;23.00;;;11.53;;
20173;SDS011;10246;50.620;7.232;2022-12-13T00:38:53;21.13;;;10.87;;
20173;SDS011;10246;50.620;7.232;2022-12-13T00:41:27;24.90;;;11.17;;
20173;SDS011;10246;50.620;7.232;2022-12-13T00:43:57;25.13;;;10.90;;
20173;SDS011;10246;50.620;7.232;2022-12-13T00:46:24;25.67;;;11.40;;
20173;SDS011;10246;50.620;7.232;2022-12-13T00:48:51;23.73;;;11.23;;
20173;SDS011;10246;50.620;7.232;2022-12-13T00:51:20;22.00;;;10.50;;
20173;SDS011;10246;50.620;7.232;2022-12-13T00:53:48;25.00;;;11.70;;
20173;SDS011;10246;50.620;7.232;2022-12-13T00:56:16;27.20;;;12.90;;
20173;SDS011;10246;50.620;7.232;2022-12-13T00:58:45;25.70;;;12.63;;
20173;SDS011;10246;50.620;7.232;2022-12-13T01:01:14;25.53;;;12.40;;
20173;SDS011;10246;50.620;7.232;2022-12-13T01:03:42;26.13;;;12.47;;
20173;SDS011;10246;50.620;7.232;2022-12-13T01:06:10;27.60;;;12.73;;
20173;SDS011;10246;50.620;7.232;2022-12-13T01:08:38;29.23;;;12.93;;
20173;SDS011;10246;50.620;7.232;2022-12-13T01:11:05;28.07;;;11.73;;
20173;SDS011;10246;50.620;7.232;2022-12-13T01:13:32;31.63;;;13.83;;
20173;SDS011;10246;50.620;7.232;2022-12-13T01:16:00;27.13;;;12.80;;
20173;SDS011;10246;50.620;7.232;2022-12-13T01:18:29;29.57;;;13.07;;
20173;SDS011;10246;50.620;7.232;2022-12-13T01:20:56;29.63;;;13.07;;
20173;SDS011;10246;50.620;7.232;2022-12-13T01:23:24;26.77;;;12.57;;
20173;SDS011;10246;50.620;7.232;2022-12-13T01:25:51;27.70;;;12.47;;
20173;SDS011;10246;50.620;7.232;2022-12-13T01:28:17;27.27;;;12.87;;
20173;SDS011;10246;50.620;7.232;2022-12-13T01:30:51;30.90;;;13.67;;
20173;SDS011;10246;50.620;7.232;2022-12-13T01:33:19;29.97;;;13.23;;
20173;SDS011;10246;50.620;7.232;2022-12-13T01:35:47;30.00;;;13.57;;
20173;SDS011;10246;50.620;7.232;2022-12-13T01:38:14;30.40;;;13.03;;
20173;SDS011;10246;50.620;7.232;2022-12-13T01:40:42;31.20;;;14.20;;
20173;SDS011;10246;50.620;7.232;2022-12-13T01:43:10;31.23;;;14.73;;
20173;SDS011;10246;50.620;7.232;2022-12-13T01:45:39;27.57;;;12.90;;
20173;SDS011;10246;50.620;7.232;2022-12-13T01:48:06;32.60;;;13.70;;
20173;SDS011;10246;50.620;7.232;2022-12-13T01:50:39;27.83;;;13.60;;
20173;SDS011;10246;50.620;7.232;2022-12-13T01:53:10;28.10;;;13.47;;
20173;SDS011;10246;50.620;7.232;2022-12-13T01:55:40;27.93;;;13.20;;
20173;SDS011;10246;50.620;7.232;2022-12-13T01:58:10;27.23;;;13.50;;
20173;SDS011;10246;50.620;7.232;2022-12-13T02:00:38;31.47;;;14.17;;
20173;SDS011;10246;50.620;7.232;2022-12-13T02:03:06;40.03;;;14.50;;
20173;SDS011;10246;50.620;7.232;2022-12-13T02:05:35;30.33;;;14.20;;
20173;SDS011;10246;50.620;7.232;2022-12-13T02:08:04;29.40;;;14.17;;
20173;SDS011;10246;50.620;7.232;2022-12-13T02:10:34;33.53;;;14.83;;
20173;SDS011;10246;50.620;7.232;2022-12-13T02:13:01;28.53;;;13.53;;
20173;SDS011;10246;50.620;7.232;2022-12-13T02:15:31;28.17;;;13.77;;
20173;SDS011;10246;50.620;7.232;2022-12-13T02:18:06;33.43;;;13.93;;
20173;SDS011;10246;50.620;7.232;2022-12-13T02:20:57;35.97;;;15.20;;
20173;SDS011;10246;50.620;7.232;2022-12-13T02:23:43;33.00;;;15.00;;
20173;SDS011;10246;50.620;7.232;2022-12-13T02:26:45;30.13;;;14.17;;
20173;SDS011;10246;50.620;7.232;2022-12-13T02:29:28;34.43;;;15.10;;
20173;SDS011;10246;50.620;7.232;2022-12-13T02:32:20;27.50;;;13.30;;
20173;SDS011;10246;50.620;7.232;2022-12-13T02:34:54;31.77;;;14.50;;
20173;SDS011;10246;50.620;7.232;2022-12-13T02:37:25;28.83;;;12.70;;
20173;SDS011;10246;50.620;7.232;2022-12-13T02:39:59;30.47;;;14.50;;
20173;SDS011;10246;50.620;7.232;2022-12-13T02:42:30;25.87;;;13.47;;
20173;SDS011;10246;50.620;7.232;2022-12-13T02:45:04;31.80;;;13.43;;
20173;SDS011;10246;50.620;7.232;2022-12-13T02:47:37;34.23;;;14.07;;
20173;SDS011;10246;50.620;7.232;2022-12-13T02:50:07;33.00;;;13.87;;
20173;SDS011;10246;50.620;7.232;2022-12-13T02:52:37;33.23;;;14.47;;
20173;SDS011;10246;50.620;7.232;2022-12-13T02:55:07;34.60;;;14.83;;
20173;SDS011;10246;50.620;7.232;2022-12-13T02:57:38;29.67;;;13.93;;
20173;SDS011;10246;50.620;7.232;2022-12-13T03:00:07;31.63;;;13.60;;
20173;SDS011;10246;50.620;7.232;2022-12-13T03:02:41;28.70;;;13.73;;
20173;SDS011;10246;50.620;7.232;2022-12-13T03:05:15;28.80;;;13.27;;
20173;SDS011;10246;50.620;7.232;2022-12-13T03:08:11;25.00;;;11.80;;
20173;SDS011;10246;50.620;7.232;2022-12-13T03:10:49;29.47;;;13.33;;
20173;SDS011;10246;50.620;7.232;2022-12-13T03:13:25;26.20;;;13.33;;
20173;SDS011;10246;50.620;7.232;2022-12-13T03:16:13;30.57;;;13.70;;
20173;SDS011;10246;50.620;7.232;2022-12-13T03:18:52;26.50;;;12.83;;
20173;SDS011;10246;50.620;7.232;2022-12-13T03:21:22;29.03;;;13.80;;
20173;SDS011;10246;50.620;7.232;2022-12-13T03:23:49;28.00;;;13.27;;
20173;SDS011;10246;50.620;7.232;2022-12-13T03:26:16;27.93;;;13.13;;
20173;SDS011;10246;50.620;7.232;2022-12-13T03:28:45;26.17;;;13.30;;
20173;SDS011;10246;50.620;7.232;2022-12-13T03:31:12;30.10;;;13.47;;
20173;SDS011;10246;50.620;7.232;2022-12-13T03:33:39;28.80;;;12.47;;
20173;SDS011;10246;50.620;7.232;2022-12-13T03:36:07;29.53;;;13.80;;
20173;SDS011;10246;50.620;7.232;2022-12-13T03:38:35;31.67;;;13.70;;
20173;SDS011;10246;50.620;7.232;2022-12-13T03:41:05;30.07;;;13.23;;
20173;SDS011;10246;50.620;7.232;2022-12-13T03:43:34;31.77;;;13.97;;
20173;SDS011;10246;50.620;7.232;2022-12-13T03:46:01;28.70;;;13.80;;
20173;SDS011;10246;50.620;7.232;2022-12-13T03:48:27;30.33;;;13.23;;
20173;SDS011;10246;50.620;7.232;2022-12-13T03:50:55;28.53;;;13.30;;
20173;SDS011;10246;50.620;7.232;2022-12-13T03:53:23;30.87;;;13.77;;
20173;SDS011;10246;50.620;7.232;2022-12-13T03:55:50;31.47;;;14.43;;
20173;SDS011;10246;50.620;7.232;2022-12-13T03:58:17;26.23;;;12.83;;
20173;SDS011;10246;50.620;7.232;2022-12-13T04:00:44;30.20;;;14.17;;
20173;SDS011;10246;50.620;7.232;2022-12-13T04:03:10;27.83;;;13.40;;
20173;SDS011;10246;50.620;7.232;2022-12-13T04:05:37;31.13;;;13.70;;
20173;SDS011;10246;50.620;7.232;2022-12-13T04:08:04;26.67;;;13.77;;
20173;SDS011;10246;50.620;7.232;2022-12-13T04:10:33;27.33;;;13.17;;
20173;SDS011;10246;50.620;7.232;2022-12-13T04:13:00;31.37;;;13.40;;
20173;SDS011;10246;50.620;7.232;2022-12-13T04:15:44;30.57;;;13.70;;
20173;SDS011;10246;50.620;7.232;2022-12-13T04:18:13;29.10;;;13.13;;
20173;SDS011;10246;50.620;7.232;2022-12-13T04:20:41;30.97;;;14.07;;
20173;SDS011;10246;50.620;7.232;2022-12-13T04:23:08;31.10;;;14.50;;
20173;SDS011;10246;50.620;7.232;2022-12-13T04:25:36;31.27;;;14.63;;
20173;SDS011;10246;50.620;7.232;2022-12-13T04:28:03;28.90;;;13.20;;
20173;SDS011;10246;50.620;7.232;2022-12-13T04:30:31;29.00;;;12.80;;
20173;SDS011;10246;50.620;7.232;2022-12-13T04:32:57;30.07;;;13.03;;
20173;SDS011;10246;50.620;7.232;2022-12-13T04:35:26;29.47;;;14.03;;
20173;SDS011;10246;50.620;7.232;2022-12-13T04:37:53;26.60;;;12.43;;
20173;SDS011;10246;50.620;7.232;2022-12-13T04:40:20;27.40;;;12.27;;
20173;SDS011;10246;50.620;7.232;2022-12-13T04:42:49;28.00;;;13.27;;
20173;SDS011;10246;50.620;7.232;2022-12-13T04:45:16;28.57;;;12.80;;
20173;SDS011;10246;50.620;7.232;2022-12-13T04:47:43;24.97;;;11.80;;
20173;SDS011;10246;50.620;7.232;2022-12-13T04:50:10;31.23;;;13.27;;
20173;SDS011;10246;50.620;7.232;2022-12-13T04:52:36;27.23;;;12.90;;
20173;SDS011;10246;50.620;7.232;2022-12-13T04:55:04;27.20;;;12.50;;
20173;SDS011;10246;50.620;7.232;2022-12-13T04:57:32;27.10;;;12.30;;
20173;SDS011;10246;50.620;7.232;2022-12-13T05:00:01;23.67;;;11.33;;
20173;SDS011;10246;50.620;7.232;2022-12-13T05:02:27;26.03;;;12.53;;
20173;SDS011;10246;50.620;7.232;2022-12-13T05:04:54;27.17;;;12.37;;
20173;SDS011;10246;50.620;7.232;2022-12-13T05:07:22;24.73;;;10.93;;
20173;SDS011;10246;50.620;7.232;2022-12-13T05:09:51;23.00;;;11.00;;
20173;SDS011;10246;50.620;7.232;2022-12-13T05:12:18;24.73;;;11.37;;
20173;SDS011;10246;50.620;7.232;2022-12-13T05:14:45;24.03;;;12.13;;
20173;SDS011;10246;50.620;7.232;2022-12-13T05:17:13;28.90;;;12.70;;
20173;SDS011;10246;50.620;7.232;2022-12-13T05:19:40;25.67;;;11.90;;
20173;SDS011;10246;50.620;7.232;2022-12-13T05:22:07;24.13;;;11.63;;
20173;SDS011;10246;50.620;7.232;2022-12-13T05:24:39;26.30;;;11.50;;
20173;SDS011;10246;50.620;7.232;2022-12-13T05:27:06;24.43;;;10.53;;
20173;SDS011;10246;50.620;7.232;2022-12-13T05:29:33;26.43;;;11.90;;
20173;SDS011;10246;50.620;7.232;2022-12-13T05:32:01;22.70;;;10.90;;
20173;SDS011;10246;50.620;7.232;2022-12-13T05:34:30;24.20;;;12.53;;
20173;SDS011;10246;50.620;7.232;2022-12-13T05:36:57;22.40;;;10.07;;
20173;SDS011;10246;50.620;7.232;2022-12-13T05:39:24;23.90;;;10.43;;
20173;SDS011;10246;50.620;7.232;2022-12-13T05:41:50;21.83;;;10.53;;
20173;SDS011;10246;50.620;7.232;2022-12-13T05:44:18;24.10;;;9.93;;
20173;SDS011;10246;50.620;7.232;2022-12-13T05:46:45;26.07;;;11.07;;
20173;SDS011;10246;50.620;7.232;2022-12-13T05:49:12;23.77;;;10.70;;
20173;SDS011;10246;50.620;7.232;2022-12-13T05:51:40;24.77;;;11.13;;
20173;SDS011;10246;50.620;7.232;2022-12-13T05:54:07;30.43;;;12.60;;
20173;SDS011;10246;50.620;7.232;2022-12-13T05:56:34;25.17;;;11.73;;
20173;SDS011;10246;50.620;7.232;2022-12-13T05:59:01;23.53;;;11.10;;
20173;SDS011;10246;50.620;7.232;2022-12-13T06:01:28;21.57;;;10.67;;
20173;SDS011;10246;50.620;7.232;2022-12-13T06:03:55;23.17;;;11.10;;
20173;SDS011;10246;50.620;7.232;2022-12-13T06:06:21;28.27;;;11.80;;
20173;SDS011;10246;50.620;7.232;2022-12-13T06:08:49;30.60;;;11.90;;
20173;SDS011;10246;50.620;7.232;2022-12-13T06:11:16;28.40;;;11.17;;
20173;SDS011;10246;50.620;7.232;2022-12-13T06:13:43;22.83;;;10.17;;
20173;SDS011;10246;50.620;7.232;2022-12-13T06:16:11;24.93;;;10.87;;
20173;SDS011;10246;50.620;7.232;2022-12-13T06:18:38;22.93;;;10.30;;
20173;SDS011;10246;50.620;7.232;2022-12-13T06:21:05;24.00;;;10.63;;
20173;SDS011;10246;50.620;7.232;2022-12-13T06:23:33;25.03;;;11.63;;
20173;SDS011;10246;50.620;7.232;2022-12-13T06:26:02;26.00;;;12.10;;
20173;SDS011;10246;50.620;7.232;2022-12-13T06:28:29;24.50;;;11.87;;
20173;SDS011;10246;50.620;7.232;2022-12-13T06:30:57;25.80;;;11.60;;
20173;SDS011;10246;50.620;7.232;2022-12-13T06:33:25;27.70;;;11.77;;
20173;SDS011;10246;50.620;7.232;2022-12-13T06:35:54;26.53;;;11.83;;
20173;SDS011;10246;50.620;7.232;2022-12-13T06:38:22;23.27;;;11.10;;
20173;SDS011;10246;50.620;7.232;2022-12-13T06:40:49;27.03;;;12.03;;
20173;SDS011;10246;50.620;7.232;2022-12-13T06:43:17;23.83;;;10.50;;
20173;SDS011;10246;50.620;7.232;2022-12-13T06:45:44;24.50;;;11.13;;
20173;SDS011;10246;50.620;7.232;2022-12-13T06:48:11;26.50;;;9.97;;
20173;SDS011;10246;50.620;7.232;2022-12-13T06:50:39;23.03;;;10.23;;
20173;SDS011;10246;50.620;7.232;2022-12-13T06:53:06;23.30;;;10.43;;
20173;SDS011;10246;50.620;7.232;2022-12-13T06:55:33;25.63;;;10.20;;
20173;SDS011;10246;50.620;7.232;2022-12-13T06:58:00;26.70;;;11.80;;
20173;SDS011;10246;50.620;7.232;2022-12-13T07:00:29;24.27;;;11.00;;
20173;SDS011;10246;50.620;7.232;2022-12-13T07:02:55;23.97;;;10.77;;
20173;SDS011;10246;50.620;7.232;2022-12-13T07:05:22;28.63;;;11.57;;
20173;SDS011;10246;50.620;7.232;2022-12-13T07:07:51;20.73;;;10.00;;
20173;SDS011;10246;50.620;7.232;2022-12-13T07:10:18;20.13;;;9.80;;
20173;SDS011;10246;50.620;7.232;2022-12-13T07:12:45;22.87;;;11.20;;
20173;SDS011;10246;50.620;7.232;2022-12-13T07:15:12;21.23;;;9.60;;
20173;SDS011;10246;50.620;7.232;2022-12-13T07:17:40;21.70;;;9.97;;
20173;SDS011;10246;50.620;7.232;2022-12-13T07:20:08;21.50;;;10.97;;
20173;SDS011;10246;50.620;7.232;2022-12-13T07:22:37;22.80;;;10.37;;
20173;SDS011;10246;50.620;7.232;2022-12-13T07:25:04;22.67;;;10.00;;
20173;SDS011;10246;50.620;7.232;2022-12-13T07:27:31;21.63;;;10.67;;
20173;SDS011;10246;50.620;7.232;2022-12-13T07:29:59;20.90;;;11.13;;
20173;SDS011;10246;50.620;7.232;2022-12-13T07:32:27;21.67;;;10.27;;
20173;SDS011;10246;50.620;7.232;2022-12-13T07:34:55;26.40;;;11.10;;
20173;SDS011;10246;50.620;7.232;2022-12-13T07:37:22;20.77;;;10.50;;
20173;SDS011;10246;50.620;7.232;2022-12-13T07:39:49;23.80;;;10.70;;
20173;SDS011;10246;50.620;7.232;2022-12-13T07:42:16;23.03;;;10.80;;
20173;SDS011;10246;50.620;7.232;2022-12-13T07:44:42;26.20;;;11.13;;
20173;SDS011;10246;50.620;7.232;2022-12-13T07:47:10;24.97;;;10.73;;
20173;SDS011;10246;50.620;7.232;2022-12-13T07:49:37;28.40;;;11.60;;
20173;SDS011;10246;50.620;7.232;2022-12-13T07:52:08;25.33;;;11.60;;
20173;SDS011;10246;50.620;7.232;2022-12-13T07:54:36;26.93;;;12.17;;
20173;SDS011;10246;50.620;7.232;2022-12-13T07:57:03;31.03;;;13.23;;
20173;SDS011;10246;50.620;7.232;2022-12-13T07:59:29;27.83;;;12.27;;
20173;SDS011;10246;50.620;7.232;2022-12-13T08:01:56;30.03;;;13.53;;
20173;SDS011;10246;50.620;7.232;2022-12-13T08:04:23;31.30;;;13.40;;
20173;SDS011;10246;50.620;7.232;2022-12-13T08:06:50;25.60;;;12.67;;
20173;SDS011;10246;50.620;7.232;2022-12-13T08:09:18;29.80;;;12.53;;
20173;SDS011;10246;50.620;7.232;2022-12-13T08:11:45;28.87;;;12.27;;
20173;SDS011;10246;50.620;7.232;2022-12-13T08:14:12;27.13;;;13.37;;
20173;SDS011;10246;50.620;7.232;2022-12-13T08:16:38;32.47;;;15.00;;
20173;SDS011;10246;50.620;7.232;2022-12-13T08:19:05;31.53;;;14.87;;
20173;SDS011;10246;50.620;7.232;2022-12-13T08:21:34;27.87;;;13.80;;
20173;SDS011;10246;50.620;7.232;2022-12-13T08:24:03;34.40;;;15.43;;
20173;SDS011;10246;50.620;7.232;2022-12-13T08:26:31;33.93;;;16.27;;
20173;SDS011;10246;50.620;7.232;2022-12-13T08:28:58;35.87;;;16.23;;
20173;SDS011;10246;50.620;7.232;2022-12-13T08:31:25;33.50;;;15.77;;
20173;SDS011;10246;50.620;7.232;2022-12-13T08:33:51;36.00;;;16.60;;
20173;SDS011;10246;50.620;7.232;2022-12-13T08:36:18;32.83;;;15.63;;
20173;SDS011;10246;50.620;7.232;2022-12-13T08:38:48;31.10;;;15.43;;
20173;SDS011;10246;50.620;7.232;2022-12-13T08:41:17;33.00;;;14.37;;
20173;SDS011;10246;50.620;7.232;2022-12-13T08:43:45;30.23;;;14.30;;
20173;SDS011;10246;50.620;7.232;2022-12-13T08:46:12;28.97;;;14.07;;
20173;SDS011;10246;50.620;7.232;2022-12-13T08:48:38;36.90;;;16.17;;
20173;SDS011;10246;50.620;7.232;2022-12-13T08:51:06;37.63;;;15.57;;
20173;SDS011;10246;50.620;7.232;2022-12-13T08:53:35;29.87;;;13.93;;
20173;SDS011;10246;50.620;7.232;2022-12-13T08:56:04;32.30;;;14.87;;
20173;SDS011;10246;50.620;7.232;2022-12-13T08:58:33;32.00;;;15.10;;
20173;SDS011;10246;50.620;7.232;2022-12-13T09:01:03;28.90;;;14.40;;
20173;SDS011;10246;50.620;7.232;2022-12-13T09:03:30;30.63;;;13.57;;
20173;SDS011;10246;50.620;7.232;2022-12-13T09:05:58;28.80;;;14.07;;
20173;SDS011;10246;50.620;7.232;2022-12-13T09:08:31;35.07;;;14.83;;
20173;SDS011;10246;50.620;7.232;2022-12-13T09:10:59;38.07;;;16.63;;
20173;SDS011;10246;50.620;7.232;2022-12-13T09:13:26;37.83;;;15.07;;
20173;SDS011;10246;50.620;7.232;2022-12-13T09:15:54;30.13;;;14.83;;
20173;SDS011;10246;50.620;7.232;2022-12-13T09:18:22;36.77;;;16.73;;
20173;SDS011;10246;50.620;7.232;2022-12-13T09:20:49;29.17;;;14.37;;
20173;SDS011;10246;50.620;7.232;2022-12-13T09:23:16;34.87;;;14.50;;
20173;SDS011;10246;50.620;7.232;2022-12-13T09:25:42;33.77;;;15.27;;
20173;SDS011;10246;50.620;7.232;2022-12-13T09:28:09;32.00;;;14.60;;
20173;SDS011;10246;50.620;7.232;2022-12-13T09:30:36;34.00;;;15.03;;
20173;SDS011;10246;50.620;7.232;2022-12-13T09:33:03;30.50;;;15.00;;
20173;SDS011;10246;50.620;7.232;2022-12-13T09:35:31;36.73;;;16.40;;
20173;SDS011;10246;50.620;7.232;2022-12-13T09:37:58;35.60;;;16.30;;
20173;SDS011;10246;50.620;7.232;2022-12-13T09:40:25;40.67;;;18.23;;
20173;SDS011;10246;50.620;7.232;2022-12-13T09:42:54;44.27;;;20.60;;
20173;SDS011;10246;50.620;7.232;2022-12-13T09:45:22;39.53;;;18.93;;
20173;SDS011;10246;50.620;7.232;2022-12-13T09:47:50;40.00;;;19.13;;
20173;SDS011;10246;50.620;7.232;2022-12-13T09:50:21;39.10;;;18.23;;
20173;SDS011;10246;50.620;7.232;2022-12-13T09:52:53;35.30;;;17.80;;
20173;SDS011;10246;50.620;7.232;2022-12-13T09:55:22;38.73;;;17.43;;
20173;SDS011;10246;50.620;7.232;2022-12-13T09:57:53;36.57;;;16.67;;
20173;SDS011;10246;50.620;7.232;2022-12-13T10:00:21;38.30;;;16.83;;
20173;SDS011;10246;50.620;7.232;2022-12-13T10:02:50;34.13;;;16.60;;
20173;SDS011;10246;50.620;7.232;2022-12-13T10:05:20;35.07;;;17.40;;
20173;SDS011;10246;50.620;7.232;2022-12-13T10:07:53;36.03;;;17.27;;
20173;SDS011;10246;50.620;7.232;2022-12-13T10:10:23;39.63;;;18.47;;
20173;SDS011;10246;50.620;7.232;2022-12-13T10:12:52;41.10;;;17.10;;
20173;SDS011;10246;50.620;7.232;2022-12-13T10:15:24;35.57;;;17.87;;
20173;SDS011;10246;50.620;7.232;2022-12-13T10:17:52;38.00;;;17.23;;
20173;SDS011;10246;50.620;7.232;2022-12-13T10:20:20;38.33;;;16.10;;
20173;SDS011;10246;50.620;7.232;2022-12-13T10:22:50;35.37;;;18.00;;
20173;SDS011;10246;50.620;7.232;2022-12-13T10:25:18;34.33;;;16.60;;
20173;SDS011;10246;50.620;7.232;2022-12-13T10:28:14;36.17;;;16.53;;
20173;SDS011;10246;50.620;7.232;2022-12-13T10:30:43;31.40;;;16.50;;
20173;SDS011;10246;50.620;7.232;2022-12-13T10:33:21;35.23;;;15.87;;
20173;SDS011;10246;50.620;7.232;2022-12-13T10:36:00;34.53;;;16.50;;
20173;SDS011;10246;50.620;7.232;2022-12-13T10:38:38;31.93;;;15.77;;
20173;SDS011;10246;50.620;7.232;2022-12-13T10:41:30;30.20;;;14.87;;
20173;SDS011;10246;50.620;7.232;2022-12-13T10:44:06;31.20;;;15.77;;
20173;SDS011;10246;50.620;7.232;2022-12-13T10:46:39;33.33;;;15.53;;
20173;SDS011;10246;50.620;7.232;2022-12-13T10:49:11;29.43;;;14.23;;
20173;SDS011;10246;50.620;7.232;2022-12-13T10:51:42;34.13;;;16.90;;
20173;SDS011;10246;50.620;7.232;2022-12-13T10:54:10;26.47;;;14.60;;
20173;SDS011;10246;50.620;7.232;2022-12-13T10:56:44;33.37;;;14.60;;
20173;SDS011;10246;50.620;7.232;2022-12-13T10:59:22;29.83;;;15.53;;
20173;SDS011;10246;50.620;7.232;2022-12-13T11:01:51;27.90;;;13.70;;
20173;SDS011;10246;50.620;7.232;2022-12-13T11:04:20;27.23;;;14.80;;
20173;SDS011;10246;50.620;7.232;2022-12-13T11:06:49;26.47;;;13.37;;
20173;SDS011;10246;50.620;7.232;2022-12-13T11:09:23;28.67;;;14.37;;
20173;SDS011;10246;50.620;7.232;2022-12-13T11:11:52;27.77;;;13.40;;
20173;SDS011;10246;50.620;7.232;2022-12-13T11:14:23;25.13;;;13.30;;
20173;SDS011;10246;50.620;7.232;2022-12-13T11:16:53;31.93;;;15.63;;
20173;SDS011;10246;50.620;7.232;2022-12-13T11:19:23;26.87;;;14.17;;
20173;SDS011;10246;50.620;7.232;2022-12-13T11:21:54;28.60;;;15.37;;
20173;SDS011;10246;50.620;7.232;2022-12-13T11:24:21;26.77;;;14.37;;
20173;SDS011;10246;50.620;7.232;2022-12-13T11:26:55;27.10;;;13.10;;
20173;SDS011;10246;50.620;7.232;2022-12-13T11:29:31;25.87;;;13.10;;
20173;SDS011;10246;50.620;7.232;2022-12-13T11:32:17;25.20;;;13.00;;
20173;SDS011;10246;50.620;7.232;2022-12-13T11:34:58;23.50;;;12.77;;
20173;SDS011;10246;50.620;7.232;2022-12-13T11:37:35;24.10;;;12.47;;
20173;SDS011;10246;50.620;7.232;2022-12-13T11:40:10;23.90;;;12.93;;
20173;SDS011;10246;50.620;7.232;2022-12-13T11:42:43;22.00;;;11.30;;
20173;SDS011;10246;50.620;7.232;2022-12-13T11:45:14;22.40;;;11.83;;
20173;SDS011;10246;50.620;7.232;2022-12-13T11:47:44;24.07;;;11.77;;
20173;SDS011;10246;50.620;7.232;2022-12-13T11:50:15;23.47;;;11.93;;
20173;SDS011;10246;50.620;7.232;2022-12-13T11:52:44;22.23;;;12.07;;
20173;SDS011;10246;50.620;7.232;2022-12-13T11:55:16;23.17;;;11.90;;
20173;SDS011;10246;50.620;7.232;2022-12-13T11:57:51;31.53;;;13.43;;
20173;SDS011;10246;50.620;7.232;2022-12-13T12:00:26;22.73;;;12.43;;
20173;SDS011;10246;50.620;7.232;2022-12-13T12:02:57;28.63;;;13.23;;
20173;SDS011;10246;50.620;7.232;2022-12-13T12:05:33;24.17;;;12.23;;
20173;SDS011;10246;50.620;7.232;2022-12-13T12:08:04;29.07;;;12.73;;
20173;SDS011;10246;50.620;7.232;2022-12-13T12:10:37;25.00;;;12.50;;
20173;SDS011;10246;50.620;7.232;2022-12-13T12:13:09;30.43;;;14.17;;
20173;SDS011;10246;50.620;7.232;2022-12-13T12:15:42;25.07;;;12.37;;
20173;SDS011;10246;50.620;7.232;2022-12-13T12:18:14;21.00;;;11.00;;
20173;SDS011;10246;50.620;7.232;2022-12-13T12:20:55;25.80;;;12.63;;
20173;SDS011;10246;50.620;7.232;2022-12-13T12:23:33;26.03;;;12.87;;
20173;SDS011;10246;50.620;7.232;2022-12-13T12:26:12;23.10;;;12.07;;
20173;SDS011;10246;50.620;7.232;2022-12-13T12:28:49;22.97;;;13.03;;
20173;SDS011;10246;50.620;7.232;2022-12-13T12:31:32;21.63;;;11.90;;
20173;SDS011;10246;50.620;7.232;2022-12-13T12:34:06;22.10;;;11.30;;
20173;SDS011;10246;50.620;7.232;2022-12-13T12:36:46;21.97;;;11.00;;
20173;SDS011;10246;50.620;7.232;2022-12-13T12:39:27;21.37;;;10.70;;
20173;SDS011;10246;50.620;7.232;2022-12-13T12:42:03;23.00;;;12.03;;
20173;SDS011;10246;50.620;7.232;2022-12-13T12:44:44;21.73;;;11.27;;
20173;SDS011;10246;50.620;7.232;2022-12-13T12:47:26;20.97;;;10.80;;
20173;SDS011;10246;50.620;7.232;2022-12-13T12:50:02;20.17;;;10.90;;
20173;SDS011;10246;50.620;7.232;2022-12-13T12:52:43;21.03;;;9.90;;
20173;SDS011;10246;50.620;7.232;2022-12-13T12:55:25;20.43;;;10.80;;
20173;SDS011;10246;50.620;7.232;2022-12-13T12:58:01;19.77;;;10.33;;
20173;SDS011;10246;50.620;7.232;2022-12-13T13:00:41;23.27;;;11.37;;
20173;SDS011;10246;50.620;7.232;2022-12-13T13:03:13;19.70;;;10.40;;
20173;SDS011;10246;50.620;7.232;2022-12-13T13:05:46;21.73;;;10.87;;
20173;SDS011;10246;50.620;7.232;2022-12-13T13:08:18;22.90;;;10.40;;
20173;SDS011;10246;50.620;7.232;2022-12-13T13:10:48;17.53;;;11.03;;
20173;SDS011;10246;50.620;7.232;2022-12-13T13:13:36;19.13;;;10.63;;
20173;SDS011;10246;50.620;7.232;2022-12-13T13:18:59;23.37;;;11.00;;
20173;SDS011;10246;50.620;7.232;2022-12-13T13:21:34;23.07;;;11.47;;
20173;SDS011;10246;50.620;7.232;2022-12-13T13:24:15;18.70;;;10.73;;
20173;SDS011;10246;50.620;7.232;2022-12-13T13:26:49;20.77;;;10.20;;
20173;SDS011;10246;50.620;7.232;2022-12-13T13:29:21;18.60;;;10.20;;
20173;SDS011;10246;50.620;7.232;2022-12-13T13:32:26;19.87;;;10.17;;
20173;SDS011;10246;50.620;7.232;2022-12-13T13:34:53;19.13;;;10.17;;
20173;SDS011;10246;50.620;7.232;2022-12-13T13:40:29;19.03;;;9.70;;
20173;SDS011;10246;50.620;7.232;2022-12-13T13:45:55;21.97;;;11.73;;
20173;SDS011;10246;50.620;7.232;2022-12-13T13:48:28;18.23;;;10.27;;
20173;SDS011;10246;50.620;7.232;2022-12-13T13:51:24;22.27;;;10.83;;
20173;SDS011;10246;50.620;7.232;2022-12-13T13:54:26;18.97;;;10.00;;
20173;SDS011;10246;50.620;7.232;2022-12-13T13:57:21;19.13;;;10.23;;
20173;SDS011;10246;50.620;7.232;2022-12-13T14:00:18;19.97;;;9.47;;
20173;SDS011;10246;50.620;7.232;2022-12-13T14:03:10;22.00;;;10.17;;
20173;SDS011;10246;50.620;7.232;2022-12-13T14:06:19;16.57;;;9.13;;
20173;SDS011;10246;50.620;7.232;2022-12-13T14:09:29;16.97;;;8.33;;
20173;SDS011;10246;50.620;7.232;2022-12-13T14:15:20;16.17;;;8.63;;
20173;SDS011;10246;50.620;7.232;2022-12-13T14:18:21;17.03;;;8.03;;
20173;SDS011;10246;50.620;7.232;2022-12-13T14:21:30;15.90;;;8.40;;
20173;SDS011;10246;50.620;7.232;2022-12-13T14:24:05;15.53;;;8.80;;
20173;SDS011;10246;50.620;7.232;2022-12-13T14:26:45;15.53;;;8.37;;
20173;SDS011;10246;50.620;7.232;2022-12-13T14:29:29;18.37;;;8.43;;
20173;SDS011;10246;50.620;7.232;2022-12-13T14:31:58;14.27;;;8.50;;
20173;SDS011;10246;50.620;7.232;2022-12-13T14:34:26;14.33;;;7.80;;
20173;SDS011;10246;50.620;7.232;2022-12-13T14:36:58;21.37;;;8.87;;
20173;SDS011;10246;50.620;7.232;2022-12-13T14:39:26;18.17;;;8.47;;
20173;SDS011;10246;50.620;7.232;2022-12-13T14:41:56;15.93;;;7.80;;
20173;SDS011;10246;50.620;7.232;2022-12-13T14:44:25;15.93;;;8.10;;
20173;SDS011;10246;50.620;7.232;2022-12-13T14:46:54;16.10;;;8.83;;
20173;SDS011;10246;50.620;7.232;2022-12-13T14:49:22;20.40;;;9.90;;
20173;SDS011;10246;50.620;7.232;2022-12-13T14:51:54;30.93;;;12.83;;
20173;SDS011;10246;50.620;7.232;2022-12-13T14:54:29;20.53;;;10.17;;
20173;SDS011;10246;50.620;7.232;2022-12-13T14:57:01;15.43;;;8.87;;
20173;SDS011;10246;50.620;7.232;2022-12-13T14:59:30;21.47;;;9.77;;